createdAt,value
2022-09-24T00:01:38.920Z,80.66
2022-09-24T00:04:12.545Z,80.92
2022-09-24T00:06:46.263Z,80.85
2022-09-24T00:09:16.531Z,80.85
2022-09-24T00:11:45.824Z,80.92
2022-09-24T00:14:13.493Z,80.93
2022-09-24T00:16:42.719Z,80.92
2022-09-24T00:19:11.784Z,81.32
2022-09-24T00:21:40.101Z,81.49
2022-09-24T00:24:41.576Z,80.92
2022-09-24T00:27:08.359Z,81.25
2022-09-24T00:29:36.210Z,80.98
2022-09-24T00:32:06.053Z,80.77
2022-09-24T00:34:32.940Z,81.60
2022-09-24T00:37:00.094Z,81.70
2022-09-24T00:39:27.314Z,81.22
2022-09-24T00:41:54.526Z,81.42
2022-09-24T00:44:51.967Z,81.19
2022-09-24T00:47:41.152Z,81.58
2022-09-24T00:50:15.676Z,81.95
2022-09-24T00:53:06.084Z,82.35
2022-09-24T00:55:36.685Z,81.68
2022-09-24T00:58:07.476Z,82.13
2022-09-24T01:00:37.379Z,82.13
2022-09-24T01:03:10.511Z,82.10
2022-09-24T01:05:39.125Z,82.15
2022-09-24T01:08:17.368Z,82.78
2022-09-24T01:11:05.501Z,82.48
2022-09-24T01:14:06.230Z,82.61
2022-09-24T01:16:43.292Z,82.43
2022-09-24T01:19:46.160Z,82.44
2022-09-24T01:22:42.841Z,82.99
2022-09-24T01:25:45.414Z,83.77
2022-09-24T01:28:43.232Z,82.52
2022-09-24T01:31:25.943Z,82.45
2022-09-24T01:33:56.250Z,82.70
2022-09-24T01:36:25.169Z,83.14
2022-09-24T01:38:54.824Z,82.87
2022-09-24T01:41:22.539Z,83.21
2022-09-24T01:43:49.896Z,83.24
2022-09-24T01:46:19.951Z,83.23
2022-09-24T01:48:47.261Z,83.83
2022-09-24T01:51:44.590Z,82.77
2022-09-24T01:54:25.217Z,83.57
2022-09-24T01:57:11.618Z,83.17
2022-09-24T02:00:04.058Z,83.15
2022-09-24T02:02:56.686Z,83.25
2022-09-24T02:05:59.253Z,83.06
2022-09-24T02:08:34.631Z,83.27
2022-09-24T02:11:14.916Z,83.48
2022-09-24T02:14:09.690Z,83.49
2022-09-24T02:16:41.667Z,83.67
2022-09-24T02:19:14.706Z,83.46
2022-09-24T02:21:45.063Z,83.41
2022-09-24T02:24:21.289Z,84.06
2022-09-24T02:26:48.096Z,84.04
2022-09-24T02:29:15.025Z,83.54
2022-09-24T02:31:48.165Z,83.24
2022-09-24T02:34:28.209Z,83.63
2022-09-24T02:37:14.201Z,83.21
2022-09-24T02:39:41.722Z,83.51
2022-09-24T02:42:11.282Z,83.76
2022-09-24T02:44:38.553Z,83.35
2022-09-24T02:47:06.862Z,83.37
2022-09-24T02:49:33.894Z,83.66
2022-09-24T02:52:01.101Z,83.37
2022-09-24T02:54:28.121Z,83.34
2022-09-24T02:56:55.294Z,83.55
2022-09-24T02:59:22.350Z,83.32
2022-09-24T03:01:50.176Z,83.54
2022-09-24T03:04:17.820Z,83.79
2022-09-24T03:06:44.606Z,83.29
2022-09-24T03:09:15.071Z,83.14
2022-09-24T03:11:42.162Z,83.23
2022-09-24T03:14:09.239Z,83.14
2022-09-24T03:16:36.620Z,83.10
2022-09-24T03:19:03.506Z,83.37
2022-09-24T03:21:30.407Z,83.07
2022-09-24T03:23:57.313Z,83.18
2022-09-24T03:26:24.378Z,82.86
2022-09-24T03:28:51.178Z,83.10
2022-09-24T03:31:18.189Z,83.50
2022-09-24T03:33:49.236Z,83.33
2022-09-24T03:36:26.099Z,83.48
2022-09-24T03:38:56.643Z,83.45
2022-09-24T03:41:27.909Z,83.39
2022-09-24T03:43:55.975Z,83.41
2022-09-24T03:46:25.053Z,83.23
2022-09-24T03:48:52.300Z,83.34
2022-09-24T03:51:20.364Z,83.27
2022-09-24T03:53:48.403Z,83.40
2022-09-24T03:56:15.495Z,83.32
2022-09-24T03:58:47.664Z,83.07
2022-09-24T04:01:19.452Z,83.17
2022-09-24T04:03:46.356Z,83.44
2022-09-24T04:06:13.284Z,83.43
2022-09-24T04:08:40.068Z,83.55
2022-09-24T04:11:06.927Z,83.39
2022-09-24T04:13:33.705Z,83.62
2022-09-24T04:16:04.846Z,83.75
2022-09-24T04:18:35.710Z,83.92
2022-09-24T04:21:05.571Z,83.83
2022-09-24T04:23:32.349Z,84.02
2022-09-24T04:26:02.377Z,84.01
2022-09-24T04:28:30.769Z,83.83
2022-09-24T04:30:58.459Z,83.69
2022-09-24T04:33:25.609Z,83.73
2022-09-24T04:35:52.487Z,83.85
2022-09-24T04:38:21.471Z,83.88
2022-09-24T04:40:49.149Z,83.60
2022-09-24T04:43:16.301Z,83.89
2022-09-24T04:45:45.109Z,83.38
2022-09-24T04:48:12.568Z,83.89
2022-09-24T04:50:44.764Z,83.62
2022-09-24T04:53:12.768Z,83.62
2022-09-24T04:55:39.870Z,83.43
2022-09-24T04:58:06.774Z,83.43
2022-09-24T05:00:33.667Z,83.19
2022-09-24T05:03:05.552Z,83.12
2022-09-24T05:05:34.343Z,83.24
2022-09-24T05:08:01.987Z,82.94
2022-09-24T05:10:31.653Z,82.99
2022-09-24T05:12:59.036Z,83.00
2022-09-24T05:15:25.810Z,83.17
2022-09-24T05:17:52.704Z,83.30
2022-09-24T05:20:19.535Z,83.24
2022-09-24T05:22:49.679Z,83.47
2022-09-24T05:25:19.117Z,83.25
2022-09-24T05:28:04.287Z,83.51
2022-09-24T05:30:31.085Z,83.49
2022-09-24T05:32:58.246Z,83.53
2022-09-24T05:35:25.026Z,83.22
2022-09-24T05:37:53.919Z,83.01
2022-09-24T05:40:40.192Z,83.18
2022-09-24T05:43:07.265Z,83.10
2022-09-24T05:45:34.107Z,83.13
2022-09-24T05:48:01.153Z,83.20
2022-09-24T05:50:28.193Z,83.19
2022-09-24T05:52:55.101Z,83.14
2022-09-24T05:55:21.998Z,83.30
2022-09-24T05:57:49.337Z,83.07
2022-09-24T06:00:16.628Z,83.26
2022-09-24T06:02:43.496Z,83.59
2022-09-24T06:05:11.144Z,83.23
2022-09-24T06:07:38.166Z,83.53
2022-09-24T06:10:07.600Z,83.43
2022-09-24T06:12:37.198Z,83.63
2022-09-24T06:15:05.138Z,83.46
2022-09-24T06:17:32.625Z,83.58
2022-09-24T06:19:59.445Z,83.42
2022-09-24T06:22:28.542Z,83.32
2022-09-24T06:24:56.133Z,83.24
2022-09-24T06:27:23.427Z,83.08
2022-09-24T06:29:50.212Z,83.23
2022-09-24T06:32:18.861Z,82.99
2022-09-24T06:34:45.792Z,83.11
2022-09-24T06:37:12.615Z,83.05
2022-09-24T06:39:39.393Z,82.69
2022-09-24T06:42:07.256Z,82.94
2022-09-24T06:44:34.844Z,82.91
2022-09-24T06:47:02.098Z,82.53
2022-09-24T06:49:33.798Z,82.75
2022-09-24T06:52:01.180Z,82.25
2022-09-24T06:54:27.903Z,82.44
2022-09-24T06:56:54.705Z,82.25
2022-09-24T06:59:21.537Z,81.87
2022-09-24T07:01:48.348Z,81.81
2022-09-24T07:04:15.157Z,81.78
2022-09-24T07:07:00.527Z,81.51
2022-09-24T07:09:27.299Z,81.74
2022-09-24T07:11:54.896Z,81.16
2022-09-24T07:14:21.641Z,81.13
2022-09-24T07:16:48.521Z,81.03
2022-09-24T07:19:15.288Z,80.20
2022-09-24T07:21:42.044Z,79.28
2022-09-24T07:24:08.913Z,78.23
2022-09-24T07:26:35.661Z,76.88
2022-09-24T07:29:02.759Z,75.63
2022-09-24T07:31:30.340Z,74.88
2022-09-24T07:33:57.554Z,73.51
2022-09-24T07:36:24.345Z,72.33
2022-09-24T07:38:52.416Z,71.68
2022-09-24T07:41:20.520Z,70.81
2022-09-24T07:43:47.687Z,69.53
2022-09-24T07:46:14.843Z,68.80
2022-09-24T07:48:41.741Z,67.63
2022-09-24T07:51:12.188Z,66.74
2022-09-24T07:53:39.063Z,65.66
2022-09-24T07:56:06.587Z,65.30
2022-09-24T07:58:33.439Z,64.35
2022-09-24T08:01:01.635Z,63.22
2022-09-24T08:03:28.557Z,63.36
2022-09-24T08:05:58.749Z,62.39
2022-09-24T08:08:26.213Z,62.14
2022-09-24T08:10:53.577Z,61.74
2022-09-24T08:13:24.022Z,62.13
2022-09-24T08:16:01.766Z,61.42
2022-09-24T08:18:31.993Z,62.06
2022-09-24T08:21:07.709Z,61.75
2022-09-24T08:23:36.512Z,61.88
2022-09-24T08:26:03.603Z,61.31
2022-09-24T08:28:31.571Z,61.33
2022-09-24T08:31:00.871Z,61.67
2022-09-24T08:33:29.315Z,61.33
2022-09-24T08:35:59.487Z,60.82
2022-09-24T08:38:27.571Z,60.51
2022-09-24T08:41:09.678Z,60.68
2022-09-24T08:44:06.328Z,60.63
2022-09-24T08:47:07.206Z,61.16
2022-09-24T08:49:43.781Z,61.41
2022-09-24T08:52:20.117Z,60.73
2022-09-24T08:54:49.873Z,60.02
2022-09-24T08:57:20.338Z,59.70
2022-09-24T08:59:52.808Z,59.82
2022-09-24T09:02:55.906Z,60.04
2022-09-24T09:05:50.124Z,59.50
2022-09-24T09:09:05.913Z,58.69
2022-09-24T09:11:37.174Z,59.17
2022-09-24T09:14:22.519Z,57.96
2022-09-24T09:16:53.037Z,57.77
2022-09-24T09:19:27.397Z,57.93
2022-09-24T09:22:14.439Z,58.01
2022-09-24T09:24:53.789Z,57.89
2022-09-24T09:27:22.259Z,58.10
2022-09-24T09:29:56.482Z,58.07
2022-09-24T09:32:50.992Z,57.24
2022-09-24T09:35:22.469Z,56.82
2022-09-24T09:38:23.496Z,56.23
2022-09-24T09:41:25.737Z,57.32
2022-09-24T09:44:12.321Z,57.95
2022-09-24T09:46:47.914Z,58.02
2022-09-24T09:49:15.648Z,57.37
2022-09-24T09:51:44.451Z,56.02
2022-09-24T09:54:11.763Z,56.14
2022-09-24T09:56:47.708Z,55.84
2022-09-24T09:59:27.273Z,55.67
2022-09-24T10:01:56.694Z,55.58
2022-09-24T10:04:36.222Z,54.53
2022-09-24T10:07:17.264Z,55.24
2022-09-24T10:09:47.274Z,55.40
2022-09-24T10:12:22.529Z,55.05
2022-09-24T10:15:06.375Z,55.71
2022-09-24T10:17:39.674Z,55.33
2022-09-24T10:20:28.659Z,54.40
2022-09-24T10:23:03.941Z,54.52
2022-09-24T10:25:32.745Z,54.38
2022-09-24T10:28:26.577Z,53.98
2022-09-24T10:31:10.881Z,53.17
2022-09-24T10:33:40.950Z,53.12
2022-09-24T10:36:21.031Z,52.79
2022-09-24T10:38:48.863Z,51.83
2022-09-24T10:41:26.204Z,52.42
2022-09-24T10:43:58.459Z,51.76
2022-09-24T10:46:50.167Z,50.95
2022-09-24T10:49:26.890Z,51.87
2022-09-24T10:52:24.077Z,50.89
2022-09-24T10:55:18.557Z,50.67
2022-09-24T10:58:27.321Z,51.65
2022-09-24T11:01:04.137Z,50.94
2022-09-24T11:03:50.516Z,51.68
2022-09-24T11:06:39.224Z,50.77
2022-09-24T11:09:29.452Z,50.91
2022-09-24T11:12:53.992Z,51.37
2022-09-24T11:16:04.128Z,51.16
2022-09-24T11:18:56.280Z,50.68
2022-09-24T11:21:52.282Z,49.97
2022-09-24T11:24:38.601Z,50.86
2022-09-24T11:27:36.727Z,50.36
2022-09-24T11:30:21.356Z,49.84
2022-09-24T11:33:26.399Z,50.98
2022-09-24T11:36:11.465Z,50.92
2022-09-24T11:39:27.854Z,50.29
2022-09-24T11:42:09.641Z,50.43
2022-09-24T11:45:13.465Z,49.89
2022-09-24T11:48:02.729Z,49.80
2022-09-24T11:51:05.458Z,49.72
2022-09-24T11:53:48.464Z,50.03
2022-09-24T11:56:47.444Z,50.37
2022-09-24T11:59:35.602Z,50.39
2022-09-24T12:02:33.566Z,49.77
2022-09-24T12:05:16.020Z,50.12
2022-09-24T12:07:49.969Z,50.90
2022-09-24T12:10:32.534Z,50.77
2022-09-24T12:13:29.822Z,49.83
2022-09-24T12:16:12.528Z,49.68
2022-09-24T12:18:54.552Z,49.71
2022-09-24T12:21:41.908Z,50.27
2022-09-24T12:24:23.687Z,50.86
2022-09-24T12:26:52.760Z,51.54
2022-09-24T12:29:59.302Z,51.39
2022-09-24T12:32:57.739Z,51.98
2022-09-24T12:35:49.676Z,52.69
2022-09-24T12:38:40.945Z,53.26
2022-09-24T12:41:24.167Z,53.33
2022-09-24T12:44:12.206Z,53.27
2022-09-24T12:46:47.184Z,53.60
2022-09-24T12:49:26.299Z,53.40
2022-09-24T12:51:59.872Z,53.46
2022-09-24T12:54:38.384Z,53.43
2022-09-24T12:57:24.267Z,54.24
2022-09-24T13:00:00.799Z,54.61
2022-09-24T13:02:57.356Z,55.95
2022-09-24T13:05:28.265Z,56.22
2022-09-24T13:08:17.859Z,57.00
2022-09-24T13:11:05.977Z,57.61
2022-09-24T13:13:41.001Z,57.73
2022-09-24T13:16:19.051Z,57.67
2022-09-24T13:19:02.458Z,58.09
2022-09-24T13:21:31.127Z,58.26
2022-09-24T13:23:58.562Z,58.83
2022-09-24T13:26:25.713Z,59.00
2022-09-24T13:29:05.863Z,59.20
2022-09-24T13:31:45.841Z,59.14
2022-09-24T13:34:30.574Z,58.94
2022-09-24T13:37:23.290Z,59.05
2022-09-24T13:40:02.095Z,59.17
2022-09-24T13:42:46.254Z,59.79
2022-09-24T13:45:21.732Z,59.61
2022-09-24T13:47:58.046Z,59.66
2022-09-24T13:50:28.149Z,59.72
2022-09-24T13:53:15.358Z,59.35
2022-09-24T13:55:48.766Z,58.70
2022-09-24T13:58:41.691Z,58.94
2022-09-24T14:01:30.333Z,59.04
2022-09-24T14:04:05.500Z,58.91
2022-09-24T14:06:44.985Z,58.42
2022-09-24T14:09:27.475Z,58.50
2022-09-24T14:12:02.095Z,58.36
2022-09-24T14:14:34.515Z,58.16
2022-09-24T14:17:10.126Z,57.43
2022-09-24T14:19:37.300Z,57.23
2022-09-24T14:22:10.928Z,55.73
2022-09-24T14:24:52.851Z,55.33
2022-09-24T14:27:23.394Z,55.25
2022-09-24T14:30:02.576Z,54.68
2022-09-24T14:32:37.398Z,55.20
2022-09-24T14:35:12.698Z,55.05
2022-09-24T14:37:47.368Z,55.03
2022-09-24T14:40:18.452Z,55.41
2022-09-24T14:42:54.222Z,55.46
2022-09-24T14:45:29.828Z,55.68
2022-09-24T14:48:03.966Z,55.19
2022-09-24T14:50:30.813Z,55.14
2022-09-24T14:53:00.598Z,55.01
2022-09-24T14:55:43.273Z,53.88
2022-09-24T14:58:24.761Z,53.17
2022-09-24T15:00:58.402Z,53.36
2022-09-24T15:03:54.945Z,53.21
2022-09-24T15:06:29.837Z,52.09
2022-09-24T15:09:17.890Z,52.61
2022-09-24T15:11:44.931Z,52.96
2022-09-24T15:14:25.200Z,53.00
2022-09-24T15:16:53.561Z,53.07
2022-09-24T15:19:27.740Z,53.51
2022-09-24T15:21:58.935Z,53.87
2022-09-24T15:24:26.407Z,53.83
2022-09-24T15:27:02.735Z,52.93
2022-09-24T15:29:30.295Z,52.81
2022-09-24T15:31:59.148Z,52.93
2022-09-24T15:34:28.745Z,52.84
2022-09-24T15:36:59.749Z,53.48
2022-09-24T15:39:27.827Z,54.38
2022-09-24T15:41:55.010Z,54.41
2022-09-24T15:44:32.942Z,54.85
2022-09-24T15:47:01.218Z,54.66
2022-09-24T15:49:28.098Z,54.83
2022-09-24T15:52:08.398Z,53.83
2022-09-24T15:54:35.371Z,53.69
2022-09-24T15:57:02.885Z,53.78
2022-09-24T15:59:29.975Z,53.80
2022-09-24T16:02:02.929Z,53.75
2022-09-24T16:04:33.603Z,53.52
2022-09-24T16:07:00.843Z,53.31
2022-09-24T16:09:39.158Z,53.62
2022-09-24T16:12:06.035Z,53.70
2022-09-24T16:14:33.141Z,53.87
2022-09-24T16:17:00.339Z,53.32
2022-09-24T16:19:27.346Z,52.86
2022-09-24T16:21:54.234Z,53.24
2022-09-24T16:24:21.581Z,53.04
2022-09-24T16:26:48.423Z,52.80
2022-09-24T16:29:15.373Z,52.61
2022-09-24T16:31:53.261Z,52.06
2022-09-24T16:34:20.355Z,52.76
2022-09-24T16:36:47.762Z,53.13
2022-09-24T16:39:16.259Z,53.29
2022-09-24T16:41:44.621Z,53.84
2022-09-24T16:44:15.548Z,53.89
2022-09-24T16:46:44.627Z,54.44
2022-09-24T16:49:12.743Z,53.83
2022-09-24T16:51:39.802Z,53.21
2022-09-24T16:54:07.456Z,53.57
2022-09-24T16:56:59.627Z,53.59
2022-09-24T16:59:32.033Z,53.84
2022-09-24T17:02:00.155Z,53.91
2022-09-24T17:04:27.805Z,54.23
2022-09-24T17:06:56.221Z,54.14
2022-09-24T17:09:43.881Z,54.42
2022-09-24T17:12:11.221Z,54.77
2022-09-24T17:14:39.211Z,54.86
2022-09-24T17:17:07.280Z,55.44
2022-09-24T17:19:34.710Z,55.35
2022-09-24T17:22:02.173Z,55.74
2022-09-24T17:25:13.055Z,55.83
2022-09-24T17:45:19.232Z,57.70
2022-09-24T17:47:58.106Z,57.47
2022-09-24T17:50:25.240Z,57.85
2022-09-24T17:52:52.351Z,58.29
2022-09-24T17:55:19.284Z,58.31
2022-09-24T17:57:46.126Z,58.61
2022-09-24T18:00:13.683Z,58.93
2022-09-24T18:02:40.650Z,59.12
2022-09-24T18:05:09.143Z,59.41
2022-09-24T18:07:36.106Z,59.89
2022-09-24T18:10:03.254Z,59.96
2022-09-24T18:12:30.376Z,60.04
2022-09-24T18:14:57.349Z,60.47
2022-09-24T18:17:24.313Z,60.61
2022-09-24T18:19:51.546Z,60.77
2022-09-24T18:22:18.363Z,61.45
2022-09-24T18:24:47.629Z,61.38
2022-09-24T18:27:16.205Z,61.51
2022-09-24T18:29:44.667Z,61.85
2022-09-24T18:32:11.798Z,62.10
2022-09-24T18:34:38.669Z,62.53
2022-09-24T18:37:06.347Z,62.64
2022-09-24T18:39:33.267Z,62.68
2022-09-24T18:42:00.243Z,62.95
2022-09-24T18:44:27.180Z,62.80
2022-09-24T18:46:54.448Z,63.24
2022-09-24T18:49:21.681Z,63.49
2022-09-24T18:51:52.169Z,63.95
2022-09-24T18:54:19.467Z,63.76
2022-09-24T18:56:47.029Z,64.29
2022-09-24T18:59:20.154Z,64.50
2022-09-24T19:01:49.058Z,65.21
2022-09-24T19:04:17.937Z,65.23
2022-09-24T19:06:48.854Z,66.02
2022-09-24T19:09:17.757Z,66.08
2022-09-24T19:11:45.758Z,66.25
2022-09-24T19:14:18.222Z,66.79
2022-09-24T19:16:48.450Z,67.14
2022-09-24T19:19:16.368Z,67.12
2022-09-24T19:21:44.174Z,67.52
2022-09-24T19:24:11.812Z,67.46
2022-09-24T19:26:38.954Z,67.65
2022-09-24T19:29:06.097Z,67.76
2022-09-24T19:31:38.286Z,68.14
2022-09-24T19:34:07.824Z,67.86
2022-09-24T19:36:44.807Z,68.18
2022-09-24T19:39:17.193Z,68.25
2022-09-24T19:41:45.221Z,68.47
2022-09-24T19:44:12.670Z,68.12
2022-09-24T19:46:42.898Z,68.79
2022-09-24T19:49:09.859Z,69.15
2022-09-24T19:51:37.428Z,69.24
2022-09-24T19:54:07.918Z,69.47
2022-09-24T19:56:36.126Z,69.47
2022-09-24T19:59:04.985Z,69.58
2022-09-24T20:01:34.107Z,69.90
2022-09-24T20:04:06.086Z,69.72
2022-09-24T20:06:34.928Z,69.46
2022-09-24T20:09:02.593Z,69.82
2022-09-24T20:11:33.123Z,70.33
2022-09-24T20:14:01.629Z,70.66
2022-09-24T20:16:33.186Z,71.08
2022-09-24T20:19:02.868Z,71.16
2022-09-24T20:21:35.371Z,70.61
2022-09-24T20:24:04.226Z,71.42
2022-09-24T20:26:50.763Z,71.10
2022-09-24T20:29:19.972Z,71.04
2022-09-24T20:31:52.679Z,71.17
2022-09-24T20:34:34.075Z,71.47
2022-09-24T20:37:03.858Z,71.60
2022-09-24T20:39:32.010Z,72.28
2022-09-24T20:42:02.511Z,72.50
2022-09-24T20:44:31.101Z,72.30
2022-09-24T20:46:58.360Z,72.70
2022-09-24T20:49:26.064Z,72.45
2022-09-24T20:51:57.416Z,72.67
2022-09-24T20:54:26.856Z,72.49
2022-09-24T20:56:54.190Z,72.61
2022-09-24T20:59:21.410Z,72.31
2022-09-24T21:01:49.782Z,73.04
2022-09-24T21:04:20.192Z,72.70
2022-09-24T21:06:49.604Z,73.07
2022-09-24T21:09:17.383Z,73.16
2022-09-24T21:11:44.646Z,73.24
2022-09-24T21:14:12.749Z,73.71
2022-09-24T21:16:40.721Z,73.55
2022-09-24T21:19:08.352Z,73.68
2022-09-24T21:21:39.187Z,73.33
2022-09-24T21:24:10.863Z,73.02
2022-09-24T21:26:39.699Z,73.60
2022-09-24T21:29:11.617Z,73.33
2022-09-24T21:31:40.084Z,73.56
2022-09-24T21:34:08.831Z,73.50
2022-09-24T21:36:43.914Z,73.97
2022-09-24T21:39:18.046Z,74.34
2022-09-24T21:41:50.117Z,74.63
2022-09-24T21:44:19.450Z,74.84
2022-09-24T21:46:47.498Z,75.17
2022-09-24T21:49:14.422Z,74.80
2022-09-24T21:51:42.126Z,75.34
2022-09-24T21:54:14.405Z,75.61
2022-09-24T21:56:41.428Z,74.95
2022-09-24T21:59:27.298Z,75.79
2022-09-24T22:01:55.612Z,76.07
2022-09-24T22:04:23.302Z,76.49
2022-09-24T22:06:51.361Z,76.02
2022-09-24T22:09:19.096Z,75.28
2022-09-24T22:11:47.082Z,75.70
2022-09-24T22:14:14.799Z,75.87
2022-09-24T22:16:42.064Z,76.08
2022-09-24T22:19:12.270Z,76.12
2022-09-24T22:21:40.673Z,76.46
2022-09-24T22:24:07.591Z,76.42
2022-09-24T22:26:34.999Z,76.44
2022-09-24T22:29:04.157Z,76.44
2022-09-24T22:31:32.146Z,76.82
2022-09-24T22:34:17.846Z,76.90
2022-09-24T22:36:44.820Z,76.92
2022-09-24T22:39:11.659Z,77.00
2022-09-24T22:41:40.244Z,76.97
2022-09-24T22:44:07.867Z,77.52
2022-09-24T22:46:36.554Z,77.14
2022-09-24T22:49:05.674Z,77.38
2022-09-24T22:51:33.871Z,77.42
2022-09-24T22:54:01.381Z,77.53
2022-09-24T22:56:30.305Z,77.22
2022-09-24T22:59:00.452Z,77.74
2022-09-24T23:01:39.632Z,77.20
2022-09-24T23:04:07.164Z,76.87
2022-09-24T23:06:34.984Z,77.19
2022-09-24T23:09:02.619Z,77.93
2022-09-24T23:11:32.877Z,77.50
2022-09-24T23:14:06.594Z,77.15
2022-09-24T23:16:37.322Z,77.22
2022-09-24T23:19:08.432Z,76.46
2022-09-24T23:21:38.846Z,76.92
2022-09-24T23:24:14.668Z,77.54
2022-09-24T23:26:41.938Z,77.47
2022-09-24T23:29:10.877Z,77.21
2022-09-24T23:31:38.725Z,77.20
2022-09-24T23:34:07.833Z,77.25
2022-09-24T23:36:35.868Z,77.56
2022-09-24T23:39:04.818Z,77.43
2022-09-24T23:41:32.223Z,77.36
2022-09-24T23:44:00.541Z,77.74
2022-09-24T23:46:27.848Z,77.71
2022-09-24T23:48:55.881Z,77.61
2022-09-24T23:51:23.425Z,78.02
2022-09-24T23:53:50.375Z,78.19
2022-09-24T23:56:18.385Z,78.02
2022-09-24T23:58:46.194Z,77.83
